createdAt,value
2019-05-12T00:02:25.013Z,5.40
2019-05-12T00:05:13.970Z,5.30
2019-05-12T00:07:43.481Z,5.30
2019-05-12T00:10:13.837Z,5.30
2019-05-12T00:12:49.349Z,5.30
2019-05-12T00:15:19.793Z,5.30
2019-05-12T00:17:50.998Z,5.10
2019-05-12T00:20:32.314Z,5.10
2019-05-12T00:23:03.399Z,5.20
2019-05-12T00:25:33.025Z,5.20
2019-05-12T00:28:02.663Z,5.20
2019-05-12T00:30:33.719Z,5.20
2019-05-12T00:33:04.795Z,5.20
2019-05-12T00:35:34.554Z,5.20
2019-05-12T00:38:04.168Z,5.20
2019-05-12T00:40:33.739Z,5.10
2019-05-12T00:43:03.271Z,5.10
2019-05-12T00:45:32.917Z,5.10
2019-05-12T00:48:02.379Z,5.10
2019-05-12T00:50:32.619Z,5.10
2019-05-12T00:53:02.288Z,5.10
2019-05-12T00:55:32.413Z,4.90
2019-05-12T00:58:01.917Z,4.90
2019-05-12T01:00:31.442Z,4.90
2019-05-12T01:03:03.811Z,4.70
2019-05-12T01:05:33.346Z,4.60
2019-05-12T01:08:22.114Z,4.70
2019-05-12T01:10:51.626Z,4.70
2019-05-12T01:13:21.127Z,4.60
2019-05-12T01:16:09.905Z,4.70
2019-05-12T01:18:39.409Z,4.60
2019-05-12T01:21:09.224Z,4.60
2019-05-12T01:23:53.287Z,4.60
2019-05-12T01:26:30.502Z,4.60
2019-05-12T01:29:12.225Z,4.50
2019-05-12T01:31:43.329Z,4.50
2019-05-12T01:34:12.871Z,4.50
2019-05-12T01:36:42.335Z,4.50
2019-05-12T01:39:31.100Z,4.50
2019-05-12T01:42:00.808Z,4.50
2019-05-12T01:44:30.290Z,4.40
2019-05-12T01:46:59.754Z,4.40
2019-05-12T01:49:29.321Z,4.40
2019-05-12T01:51:58.796Z,4.40
2019-05-12T01:54:28.293Z,4.40
2019-05-12T01:56:58.653Z,4.40
2019-05-12T01:59:28.708Z,4.40
2019-05-12T02:01:58.317Z,4.40
2019-05-12T02:04:29.633Z,4.30
2019-05-12T02:07:00.725Z,4.30
2019-05-12T02:09:31.836Z,4.30
2019-05-12T02:12:01.315Z,4.20
2019-05-12T02:14:33.612Z,4.20
2019-05-12T02:17:03.110Z,4.20
2019-05-12T02:19:32.598Z,4.10
2019-05-12T02:22:02.102Z,4.00
2019-05-12T02:24:31.565Z,4.00
2019-05-12T02:27:02.349Z,4.00
2019-05-12T02:29:31.846Z,4.00
2019-05-12T02:32:01.323Z,4.00
2019-05-12T02:34:30.811Z,4.00
2019-05-12T02:37:00.397Z,4.00
2019-05-12T02:39:29.882Z,4.00
2019-05-12T02:42:08.771Z,4.00
2019-05-12T02:44:38.540Z,4.00
2019-05-12T02:47:08.191Z,3.90
2019-05-12T02:49:37.846Z,3.80
2019-05-12T02:52:07.649Z,3.80
2019-05-12T02:54:51.901Z,3.70
2019-05-12T02:57:15.014Z,3.70
2019-05-12T02:59:48.153Z,3.80
2019-05-12T03:02:17.814Z,3.90
2019-05-12T03:04:51.134Z,3.90
2019-05-12T03:07:25.672Z,3.90
2019-05-12T03:09:56.364Z,3.90
2019-05-12T03:12:25.858Z,4.00
2019-05-12T03:14:55.295Z,3.90
2019-05-12T03:17:25.394Z,3.90
2019-05-12T03:19:56.704Z,3.70
2019-05-12T03:22:26.377Z,3.50
2019-05-12T03:25:07.944Z,3.20
2019-05-12T03:27:46.395Z,3.20
2019-05-12T03:30:19.166Z,3.20
2019-05-12T03:32:48.042Z,3.20
2019-05-12T03:35:18.361Z,3.30
2019-05-12T03:37:48.101Z,3.30
2019-05-12T03:40:17.711Z,3.40
2019-05-12T03:42:47.211Z,3.40
2019-05-12T03:45:17.122Z,3.50
2019-05-12T03:47:46.613Z,3.30
2019-05-12T03:50:16.442Z,3.40
2019-05-12T03:52:45.948Z,3.50
2019-05-12T03:55:31.010Z,3.60
2019-05-12T03:57:50.369Z,3.60
2019-05-12T04:00:20.520Z,3.70
2019-05-12T04:02:55.604Z,3.70
2019-05-12T04:05:24.489Z,3.70
2019-05-12T04:07:54.800Z,3.60
2019-05-12T04:10:24.842Z,3.50
2019-05-12T04:12:54.935Z,3.50
2019-05-12T04:15:25.607Z,3.50
2019-05-12T04:17:55.315Z,3.50
2019-05-12T04:20:25.605Z,3.50
2019-05-12T04:22:55.307Z,3.50
2019-05-12T04:25:25.231Z,3.60
2019-05-12T04:27:54.975Z,3.60
2019-05-12T04:30:25.188Z,3.70
2019-05-12T04:32:55.424Z,3.80
2019-05-12T04:35:25.599Z,3.90
2019-05-12T04:37:55.654Z,4.00
2019-05-12T04:40:25.327Z,4.10
2019-05-12T04:42:55.060Z,4.10
2019-05-12T04:45:25.618Z,4.20
2019-05-12T04:48:18.167Z,4.30
2019-05-12T04:50:46.036Z,4.30
2019-05-12T04:53:15.526Z,4.40
2019-05-12T04:56:04.529Z,4.40
2019-05-12T04:58:17.869Z,4.40
2019-05-12T05:00:47.327Z,4.40
2019-05-12T05:03:16.837Z,4.30
2019-05-12T05:05:46.547Z,4.40
2019-05-12T05:08:24.950Z,4.60
2019-05-12T05:10:54.907Z,4.70
2019-05-12T05:13:25.366Z,4.80
2019-05-12T05:16:14.564Z,4.90
2019-05-12T05:18:44.096Z,5.00
2019-05-12T05:21:14.008Z,5.10
2019-05-12T05:23:44.408Z,5.20
2019-05-12T05:26:24.389Z,5.40
2019-05-12T05:28:45.441Z,5.50
2019-05-12T05:31:16.463Z,5.60
2019-05-12T05:33:45.943Z,5.70
2019-05-12T05:36:19.760Z,5.90
2019-05-12T05:38:50.986Z,5.90
2019-05-12T05:41:18.070Z,6.10
2019-05-12T05:43:48.625Z,6.20
2019-05-12T05:46:18.725Z,6.20
2019-05-12T05:48:48.190Z,6.30
2019-05-12T05:51:17.669Z,6.30
2019-05-12T05:53:49.911Z,6.40
2019-05-12T05:56:18.510Z,6.50
2019-05-12T05:58:51.956Z,6.50
2019-05-12T06:01:19.399Z,6.50
2019-05-12T06:03:50.394Z,6.60
2019-05-12T06:06:19.893Z,6.60
2019-05-12T06:08:51.475Z,6.60
2019-05-12T06:11:23.926Z,6.70
2019-05-12T06:13:53.451Z,6.60
2019-05-12T06:16:25.111Z,6.80
2019-05-12T06:18:54.791Z,6.80
2019-05-12T06:21:28.946Z,6.90
2019-05-12T06:23:55.625Z,7.10
2019-05-12T06:26:30.861Z,7.10
2019-05-12T06:29:20.743Z,7.10
2019-05-12T06:31:48.508Z,7.40
2019-05-12T06:34:21.045Z,7.70
2019-05-12T06:36:54.180Z,7.60
2019-05-12T06:39:23.573Z,7.90
2019-05-12T06:41:56.603Z,7.90
2019-05-12T06:44:24.445Z,8.10
2019-05-12T06:47:02.235Z,8.20
2019-05-12T06:49:25.136Z,8.60
2019-05-12T06:52:01.656Z,8.80
2019-05-12T06:54:25.873Z,8.90
2019-05-12T06:57:16.548Z,8.70
2019-05-12T06:59:26.832Z,8.40
2019-05-12T07:02:00.481Z,8.00
2019-05-12T07:04:27.518Z,8.20
2019-05-12T07:07:00.751Z,8.70
2019-05-12T07:09:30.612Z,9.10
2019-05-12T07:12:03.647Z,9.30
2019-05-12T07:14:55.616Z,9.70
2019-05-12T07:17:23.883Z,10.20
2019-05-12T07:19:56.953Z,10.00
2019-05-12T07:22:25.874Z,10.90
2019-05-12T07:24:55.580Z,11.00
2019-05-12T07:27:35.776Z,10.80
2019-05-12T07:29:56.603Z,10.70
2019-05-12T07:32:26.747Z,10.50
2019-05-12T07:34:56.333Z,10.10
2019-05-12T07:37:30.068Z,10.20
2019-05-12T07:40:00.432Z,10.20
2019-05-12T07:42:34.131Z,9.80
2019-05-12T07:45:05.059Z,9.60
2019-05-12T07:47:34.523Z,9.90
2019-05-12T07:50:09.984Z,9.40
2019-05-12T07:52:37.128Z,9.60
2019-05-12T07:55:09.315Z,10.20
2019-05-12T07:57:51.923Z,10.20
2019-05-12T08:00:11.366Z,9.90
2019-05-12T08:02:44.378Z,9.50
2019-05-12T08:05:19.584Z,10.10
2019-05-12T08:07:44.953Z,10.20
2019-05-12T08:10:19.665Z,10.00
2019-05-12T08:12:46.204Z,9.90
2019-05-12T08:15:24.492Z,9.10
2019-05-12T08:17:57.788Z,9.50
2019-05-12T08:20:24.379Z,9.60
2019-05-12T08:22:54.188Z,10.10
2019-05-12T08:25:28.590Z,9.40
2019-05-12T08:28:11.143Z,8.90
2019-05-12T08:30:30.684Z,9.20
2019-05-12T08:33:03.733Z,9.10
2019-05-12T08:35:35.177Z,9.50
2019-05-12T08:38:03.912Z,9.30
2019-05-12T08:40:54.194Z,9.60
2019-05-12T08:43:24.307Z,9.50
2019-05-12T08:45:53.928Z,9.20
2019-05-12T08:48:25.128Z,9.30
2019-05-12T08:50:55.041Z,9.10
2019-05-12T08:53:26.157Z,9.30
2019-05-12T08:55:55.957Z,9.10
2019-05-12T08:58:33.658Z,9.50
2019-05-12T09:00:58.165Z,9.90
2019-05-12T09:03:30.406Z,9.70
2019-05-12T09:06:19.927Z,9.80
2019-05-12T09:08:49.752Z,9.60
2019-05-12T09:11:19.344Z,9.90
2019-05-12T09:13:52.787Z,9.60
2019-05-12T09:16:20.041Z,9.90
2019-05-12T09:18:49.523Z,10.10
2019-05-12T09:21:23.684Z,10.50
2019-05-12T09:23:53.346Z,10.80
2019-05-12T09:26:24.935Z,11.00
2019-05-12T09:28:54.295Z,10.90
2019-05-12T09:31:29.138Z,10.80
2019-05-12T09:33:55.852Z,10.90
2019-05-12T09:36:44.712Z,10.90
2019-05-12T09:39:14.313Z,10.60
2019-05-12T09:41:49.455Z,11.10
2019-05-12T09:44:15.067Z,12.50
2019-05-12T09:46:44.576Z,13.40
2019-05-12T09:49:15.609Z,14.70
2019-05-12T09:51:46.289Z,14.50
2019-05-12T09:54:15.742Z,13.70
2019-05-12T09:56:49.934Z,13.10
2019-05-12T09:59:35.839Z,12.50
2019-05-12T10:02:10.310Z,11.40
2019-05-12T10:04:36.717Z,12.20
2019-05-12T10:07:06.409Z,12.90
2019-05-12T10:09:35.934Z,13.20
2019-05-12T10:12:05.803Z,12.60
2019-05-12T10:14:35.410Z,11.80
2019-05-12T10:17:04.875Z,11.90
2019-05-12T10:19:34.371Z,11.90
2019-05-12T10:22:03.894Z,13.10
2019-05-12T10:24:41.645Z,13.80
2019-05-12T10:27:30.094Z,14.20
2019-05-12T10:29:55.188Z,14.50
2019-05-12T10:32:24.697Z,13.20
2019-05-12T10:34:54.222Z,12.30
2019-05-12T10:37:25.383Z,12.40
2019-05-12T10:39:54.955Z,13.30
2019-05-12T10:42:24.493Z,14.40
2019-05-12T10:44:56.568Z,16.50
2019-05-12T10:47:25.149Z,17.90
2019-05-12T10:49:54.680Z,17.00
2019-05-12T10:52:24.474Z,14.60
2019-05-12T10:54:54.182Z,12.40
2019-05-12T10:57:26.728Z,12.40
2019-05-12T11:00:00.520Z,12.70
2019-05-12T11:02:30.642Z,13.80
2019-05-12T11:05:00.332Z,15.30
2019-05-12T11:07:30.036Z,16.30
2019-05-12T11:10:05.127Z,15.40
2019-05-12T11:12:30.815Z,16.60
2019-05-12T11:15:01.290Z,16.20
2019-05-12T11:17:33.538Z,16.00
2019-05-12T11:20:04.173Z,15.40
2019-05-12T11:22:33.747Z,15.80
2019-05-12T11:25:04.342Z,16.20
2019-05-12T11:27:34.519Z,16.50
2019-05-12T11:30:05.743Z,15.90
2019-05-12T11:32:37.951Z,16.40
2019-05-12T11:35:08.578Z,16.40
2019-05-12T11:37:38.067Z,16.70
2019-05-12T11:40:08.266Z,16.60
2019-05-12T11:42:37.774Z,16.20
2019-05-12T11:45:08.480Z,15.80
2019-05-12T11:47:38.051Z,16.30
2019-05-12T11:50:09.986Z,16.90
2019-05-12T11:52:41.255Z,16.70
2019-05-12T11:55:13.480Z,15.50
2019-05-12T11:57:43.786Z,15.30
2019-05-12T12:00:15.722Z,14.70
2019-05-12T12:02:45.287Z,15.00
2019-05-12T12:05:15.524Z,14.40
2019-05-12T12:07:51.279Z,15.00
2019-05-12T12:10:16.743Z,15.20
2019-05-12T12:12:49.322Z,15.50
2019-05-12T12:15:20.245Z,16.30
2019-05-12T12:17:53.438Z,17.10
2019-05-12T12:20:24.256Z,17.30
2019-05-12T12:22:54.371Z,17.50
2019-05-12T12:25:25.612Z,16.80
2019-05-12T12:27:55.086Z,17.10
2019-05-12T12:30:24.993Z,17.20
2019-05-12T12:32:57.172Z,18.20
2019-05-12T12:35:25.948Z,19.00
2019-05-12T12:37:55.452Z,19.10
2019-05-12T12:40:25.075Z,17.70
2019-05-12T12:42:54.583Z,17.70
2019-05-12T12:48:10.961Z,17.90
2019-05-12T12:50:40.487Z,19.30
2019-05-12T12:53:10.008Z,19.90
2019-05-12T12:55:43.627Z,20.50
2019-05-12T12:58:10.763Z,19.60
2019-05-12T13:00:47.091Z,19.50
2019-05-12T13:03:11.576Z,17.90
2019-05-12T13:05:41.102Z,18.60
2019-05-12T13:08:10.685Z,18.50
2019-05-12T13:10:59.547Z,17.60
2019-05-12T13:13:29.013Z,18.10
2019-05-12T13:15:58.512Z,17.60
2019-05-12T13:18:33.012Z,17.50
2019-05-12T13:20:59.243Z,18.50
2019-05-12T13:23:50.987Z,19.30
2019-05-12T13:26:19.280Z,19.10
2019-05-12T13:28:53.412Z,19.80
2019-05-12T13:31:20.050Z,20.30
2019-05-12T13:33:54.621Z,20.40
2019-05-12T13:36:21.583Z,21.10
2019-05-12T13:38:51.122Z,21.40
2019-05-12T13:41:20.595Z,21.20
2019-05-12T13:43:54.758Z,19.80
2019-05-12T13:46:40.668Z,20.20
2019-05-12T13:49:10.139Z,17.50
2019-05-12T13:51:43.196Z,17.30
2019-05-12T13:54:10.950Z,18.30
2019-05-12T13:56:40.451Z,18.90
2019-05-12T13:59:12.244Z,18.80
2019-05-12T14:01:45.494Z,16.60
2019-05-12T14:04:14.044Z,16.90
2019-05-12T14:06:43.651Z,18.10
2019-05-12T14:09:13.746Z,19.20
2019-05-12T14:11:43.699Z,19.70
2019-05-12T14:14:15.479Z,20.50
2019-05-12T14:16:57.393Z,19.70
2019-05-12T14:19:35.792Z,19.10
2019-05-12T14:22:06.359Z,19.50
2019-05-12T14:24:41.899Z,19.00
2019-05-12T14:27:07.059Z,18.80
2019-05-12T14:29:36.576Z,17.40
2019-05-12T14:32:06.062Z,17.00
2019-05-12T14:34:59.368Z,16.70
2019-05-12T14:37:27.083Z,15.30
2019-05-12T14:39:56.567Z,16.10
2019-05-12T14:42:34.652Z,15.50
2019-05-12T14:45:19.319Z,15.60
2019-05-12T14:47:47.994Z,16.40
2019-05-12T14:50:17.495Z,16.50
2019-05-12T14:52:50.183Z,17.30
2019-05-12T14:55:18.202Z,18.50
2019-05-12T14:57:47.704Z,18.20
2019-05-12T15:00:21.181Z,18.40
2019-05-12T15:02:49.326Z,17.90
2019-05-12T15:05:18.987Z,17.30
2019-05-12T15:07:56.478Z,16.50
2019-05-12T15:10:19.946Z,16.60
2019-05-12T15:12:49.445Z,16.90
2019-05-12T15:15:20.698Z,16.40
2019-05-12T15:17:56.669Z,15.40
2019-05-12T15:20:41.520Z,15.60
2019-05-12T15:23:14.379Z,16.00
2019-05-12T15:25:43.734Z,15.80
2019-05-12T15:28:33.813Z,15.20
2019-05-12T15:31:03.952Z,15.30
2019-05-12T15:33:33.737Z,15.20
2019-05-12T15:36:04.667Z,15.50
2019-05-12T15:38:34.720Z,15.10
2019-05-12T15:41:04.390Z,15.10
2019-05-12T15:43:35.786Z,14.80
2019-05-12T15:46:05.145Z,14.30
2019-05-12T15:48:40.636Z,14.40
2019-05-12T15:51:10.145Z,14.70
2019-05-12T15:53:39.617Z,14.60
2019-05-12T15:56:14.959Z,14.50
2019-05-12T15:58:40.339Z,14.50
2019-05-12T16:01:09.844Z,14.30
2019-05-12T16:03:39.371Z,14.40
2019-05-12T16:06:11.762Z,14.10
2019-05-12T16:08:40.041Z,13.90
2019-05-12T16:11:09.714Z,14.20
2019-05-12T16:13:39.206Z,14.10
2019-05-12T16:16:08.683Z,14.40
2019-05-12T16:18:40.570Z,14.60
2019-05-12T16:21:09.655Z,14.50
2019-05-12T16:23:39.143Z,14.20
2019-05-12T16:26:12.497Z,14.10
2019-05-12T16:28:40.099Z,14.10
2019-05-12T16:31:09.651Z,13.80
2019-05-12T16:33:39.154Z,13.70
2019-05-12T16:36:11.386Z,13.60
2019-05-12T16:38:40.622Z,13.50
2019-05-12T16:41:10.135Z,13.50
2019-05-12T16:43:39.636Z,13.60
2019-05-12T16:46:09.137Z,13.70
2019-05-12T16:48:42.112Z,13.50
2019-05-12T16:51:09.887Z,13.40
2019-05-12T16:53:39.360Z,13.40
2019-05-12T16:56:29.844Z,13.50
2019-05-12T16:58:59.707Z,13.40
2019-05-12T17:01:29.615Z,13.30
2019-05-12T17:03:59.256Z,13.50
2019-05-12T17:06:34.216Z,13.60
2019-05-12T17:09:00.177Z,13.70
2019-05-12T17:11:31.042Z,13.80
2019-05-12T17:14:04.009Z,13.80
2019-05-12T17:16:35.382Z,13.70
2019-05-12T17:19:06.026Z,13.70
2019-05-12T17:21:34.666Z,13.70
2019-05-12T17:24:04.302Z,13.30
2019-05-12T17:26:34.102Z,13.10
2019-05-12T17:29:03.587Z,13.00
2019-05-12T17:31:33.805Z,13.10
2019-05-12T17:34:06.569Z,12.90
2019-05-12T17:36:34.866Z,12.90
2019-05-12T17:39:07.833Z,12.90
2019-05-12T17:41:42.849Z,12.80
2019-05-12T17:44:08.811Z,12.80
2019-05-12T17:46:39.589Z,12.80
2019-05-12T17:49:09.285Z,12.70
2019-05-12T17:51:38.782Z,12.70
2019-05-12T17:54:27.615Z,12.60
2019-05-12T17:56:57.116Z,12.60
2019-05-12T17:59:29.232Z,12.50
2019-05-12T18:01:57.900Z,12.50
2019-05-12T18:04:49.771Z,12.40
2019-05-12T18:07:20.017Z,12.30
2019-05-12T18:09:50.525Z,12.20
2019-05-12T18:12:20.814Z,12.20
2019-05-12T18:14:52.224Z,12.20
2019-05-12T18:17:23.663Z,12.10
2019-05-12T18:19:58.974Z,12.10
2019-05-12T18:22:24.318Z,12.10
2019-05-12T18:24:54.274Z,12.00
2019-05-12T18:27:23.929Z,12.10
2019-05-12T18:29:53.714Z,12.00
2019-05-12T18:32:24.342Z,12.00
2019-05-12T18:34:54.214Z,11.90
2019-05-12T18:37:43.181Z,11.70
2019-05-12T18:40:14.841Z,11.70
2019-05-12T18:42:44.510Z,11.60
2019-05-12T18:45:17.788Z,11.60
2019-05-12T18:47:46.161Z,11.50
2019-05-12T18:50:20.697Z,11.50
2019-05-12T18:52:47.691Z,11.40
2019-05-12T18:55:19.767Z,11.40
2019-05-12T18:57:50.052Z,11.30
2019-05-12T19:00:22.100Z,11.30
2019-05-12T19:03:10.920Z,11.10
2019-05-12T19:05:40.467Z,11.10
2019-05-12T19:08:09.985Z,11.00
2019-05-12T19:10:44.460Z,11.00
2019-05-12T19:13:10.765Z,10.90
2019-05-12T19:15:40.539Z,10.90
2019-05-12T19:18:10.027Z,10.80
2019-05-12T19:20:58.827Z,10.60
2019-05-12T19:23:35.190Z,10.60
2019-05-12T19:26:18.887Z,10.50
2019-05-12T19:28:53.041Z,10.50
2019-05-12T19:31:19.596Z,10.40
2019-05-12T19:34:11.343Z,10.20
2019-05-12T19:36:46.563Z,10.10
2019-05-12T19:39:13.804Z,9.90
2019-05-12T19:41:50.662Z,9.70
2019-05-12T19:44:25.608Z,9.60
2019-05-12T19:46:51.357Z,9.50
2019-05-12T19:49:25.951Z,9.40
2019-05-12T19:51:54.290Z,9.30
2019-05-12T19:54:29.804Z,9.10
2019-05-12T19:56:59.041Z,9.00
2019-05-12T19:59:28.540Z,8.90
2019-05-12T20:01:58.070Z,8.80
2019-05-12T20:04:33.151Z,8.70
2019-05-12T20:07:18.115Z,8.60
2019-05-12T20:09:55.065Z,8.60
2019-05-12T20:12:19.168Z,8.50
2019-05-12T20:14:50.924Z,8.50
2019-05-12T20:17:20.017Z,8.50
2019-05-12T20:19:49.489Z,8.50
2019-05-12T20:22:18.964Z,8.40
2019-05-12T20:24:48.472Z,8.40
2019-05-12T20:27:21.901Z,8.30
2019-05-12T20:29:49.158Z,8.30
2019-05-12T20:32:18.664Z,8.20
2019-05-12T20:34:51.977Z,8.20
2019-05-12T20:37:19.340Z,8.20
2019-05-12T20:40:08.732Z,8.10
2019-05-12T20:42:44.181Z,8.10
2019-05-12T20:45:13.608Z,8.10
2019-05-12T20:48:04.046Z,8.00
2019-05-12T20:50:38.583Z,8.00
2019-05-12T20:53:04.853Z,8.00
2019-05-12T20:55:36.589Z,8.00
2019-05-12T20:58:05.639Z,8.00
2019-05-12T21:00:38.992Z,8.00
2019-05-12T21:03:08.217Z,8.00
2019-05-12T21:06:01.434Z,7.80
2019-05-12T21:08:53.586Z,7.80
2019-05-12T21:11:18.740Z,7.70
2019-05-12T21:13:50.821Z,7.60
2019-05-12T21:16:31.147Z,7.60
2019-05-12T21:19:05.589Z,7.50
2019-05-12T21:21:25.157Z,7.50
2019-05-12T21:23:59.048Z,7.50
2019-05-12T21:26:28.414Z,7.50
2019-05-12T21:28:56.550Z,7.40
2019-05-12T21:31:30.826Z,7.40
2019-05-12T21:34:21.053Z,7.20
2019-05-12T21:37:07.058Z,7.20
2019-05-12T21:39:40.555Z,7.10
2019-05-12T21:42:27.161Z,7.00
2019-05-12T21:44:56.816Z,7.00
2019-05-12T21:47:26.291Z,6.70
2019-05-12T21:49:58.040Z,6.70
2019-05-12T21:52:27.014Z,6.60
2019-05-12T21:54:56.488Z,6.60
2019-05-12T21:57:30.842Z,6.50
2019-05-12T21:59:57.203Z,6.50
2019-05-12T22:02:30.824Z,6.40
2019-05-12T22:04:57.992Z,6.30
2019-05-12T22:07:29.389Z,6.30
2019-05-12T22:09:58.743Z,6.20
2019-05-12T22:12:47.561Z,6.00
2019-05-12T22:15:21.288Z,6.00
2019-05-12T22:17:54.355Z,6.00
2019-05-12T22:20:23.936Z,5.90
2019-05-12T22:22:53.480Z,5.90
2019-05-12T22:25:23.665Z,5.90
2019-05-12T22:27:59.234Z,5.80
2019-05-12T22:30:27.517Z,5.70
2019-05-12T22:32:59.511Z,5.70
2019-05-12T22:35:30.550Z,5.60
2019-05-12T22:38:20.979Z,5.60
2019-05-12T22:40:56.071Z,5.50
2019-05-12T22:43:45.675Z,5.50
2019-05-12T22:46:16.468Z,5.40
2019-05-12T22:48:45.286Z,5.40
2019-05-12T22:51:23.154Z,5.40
2019-05-12T22:53:46.163Z,5.30
2019-05-12T22:56:18.068Z,5.40
2019-05-12T22:58:46.977Z,5.30
2019-05-12T23:01:16.480Z,5.30
2019-05-12T23:03:51.643Z,5.30
2019-05-12T23:06:23.695Z,5.30
2019-05-12T23:08:49.409Z,5.30
2019-05-12T23:11:23.511Z,5.20
2019-05-12T23:13:50.224Z,5.20
2019-05-12T23:16:25.830Z,5.10
2019-05-12T23:18:50.944Z,5.00
2019-05-12T23:21:20.428Z,4.90
2019-05-12T23:23:56.060Z,4.90
2019-05-12T23:26:24.485Z,4.80
2019-05-12T23:28:54.040Z,4.70
2019-05-12T23:31:26.095Z,4.70
2019-05-12T23:34:14.565Z,4.60
2019-05-12T23:36:44.181Z,4.60
2019-05-12T23:39:14.286Z,4.50
2019-05-12T23:41:44.219Z,4.50
2019-05-12T23:44:13.732Z,4.40
2019-05-12T23:46:43.848Z,4.40
2019-05-12T23:49:25.864Z,4.40
2019-05-12T23:51:55.320Z,4.40
2019-05-12T23:54:26.341Z,4.30
2019-05-12T23:57:15.730Z,4.30
2019-05-12T23:59:45.444Z,4.30
